.
WxDataArchive / Data Records for 2014-03-20
2014-03-19 March 2014 2014-03-21

Data Records for Thursday, 20 March 2014

Time	Temp	Chill	HIndex	Humid	Dewpt	 Wind 	HiWind	WindDir	Rain 	Barom
-----	----	-----	------	-----	-----	------	------	-------	-----	-----
00:00	35.6	35.6	35.6	85	31.5	2	5	270	0.00	29.924 
00:05	35.6	35.6	35.6	85	31.5	3	9	248	0.00	29.924 
00:10	35.6	35.6	35.6	84	31.3	3	6	270	0.00	29.924 
00:15	35.6	35.6	35.6	84	31.3	3	5	248	0.00	29.923 
00:20	35.6	32.2	35.6	83	31.0	4	6	270	0.00	29.923 
00:25	35.6	35.6	35.6	83	31.0	3	6	270	0.00	29.923 
00:30	35.8	32.5	35.8	82	30.9	4	6	248	0.00	29.924 
00:35	35.6	35.6	35.6	82	30.7	2	5	248	0.00	29.924 
00:40	35.6	35.6	35.6	81	30.4	2	5	270	0.00	29.924 
00:45	35.6	35.6	35.6	81	30.4	2	6	248	0.00	29.924 
00:50	35.6	35.6	35.6	81	30.4	2	6	270	0.00	29.924 
00:55	35.6	35.6	35.6	80	30.1	2	5	270	0.00	29.924 
01:00	35.6	35.6	35.6	80	30.1	3	7	270	0.00	29.925 
01:05	35.6	35.6	35.6	80	30.1	1	4	270	0.00	29.925 
01:10	35.5	35.5	35.5	80	30.0	3	5	270	0.00	29.925 
01:15	35.5	35.5	35.5	79	29.6	3	6	270	0.00	29.932 
01:20	35.5	35.5	35.5	79	29.6	2	4	270	0.00	29.932 
01:25	35.5	35.5	35.5	79	29.6	2	5	270	0.00	29.932 
01:30	35.5	35.5	35.5	79	29.6	3	6	270	0.00	29.936 
01:35	35.5	35.5	35.5	79	29.6	3	6	248	0.00	29.936 
01:40	35.3	35.3	35.3	79	29.4	2	6	248	0.00	29.936 
01:45	35.3	35.3	35.3	79	29.4	3	6	248	0.00	29.937 
01:50	35.3	35.3	35.3	79	29.4	1	5	270	0.00	29.937 
01:55	35.2	35.2	35.2	78	29.0	3	5	270	0.00	29.937 
02:00	35.2	35.2	35.2	78	29.0	3	5	248	0.00	29.940 
02:05	35.2	35.2	35.2	77	28.7	2	3	270	0.00	29.940 
02:10	35.0	35.0	35.0	77	28.5	2	6	270	0.00	29.940 
02:15	35.0	35.0	35.0	77	28.5	2	5	248	0.00	29.940 
02:20	35.0	35.0	35.0	76	28.2	2	6	270	0.00	29.940 
02:25	35.0	35.0	35.0	75	27.9	2	4	270	0.00	29.940 
02:30	35.0	35.0	35.0	75	27.9	2	6	270	0.00	29.940 
02:35	34.9	34.9	34.9	75	27.8	2	4	292	0.00	29.940 
02:40	34.9	34.9	34.9	75	27.8	2	4	292	0.00	29.940 
02:45	34.9	34.9	34.9	75	27.8	2	3	292	0.00	29.941 
02:50	34.7	34.7	34.7	75	27.6	1	3	270	0.00	29.941 
02:55	34.7	34.7	34.7	75	27.6	1	3	248	0.00	29.941 
03:00	34.6	34.6	34.6	75	27.5	2	6	248	0.00	29.944 
03:05	34.6	34.6	34.6	75	27.5	2	5	248	0.00	29.944 
03:10	34.6	34.6	34.6	75	27.5	3	5	270	0.00	29.944 
03:15	34.4	34.4	34.4	75	27.3	2	4	270	0.00	29.947 
03:20	34.4	34.4	34.4	75	27.3	2	3	248	0.00	29.947 
03:25	34.4	34.4	34.4	74	27.0	2	4	248	0.00	29.947 
03:30	34.4	34.4	34.4	74	27.0	1	4	248	0.00	29.947 
03:35	34.3	34.3	34.3	74	26.9	2	5	248	0.00	29.947 
03:40	34.3	34.3	34.3	74	26.9	3	9	248	0.00	29.947 
03:45	34.3	34.3	34.3	74	26.9	1	4	248	0.00	29.945 
03:50	34.1	34.1	34.1	74	26.7	1	5	248	0.00	29.945 
03:55	34.1	34.1	34.1	74	26.7	2	5	248	0.00	29.945 
04:00	34.0	34.0	34.0	74	26.6	2	5	270	0.00	29.944 
04:05	34.0	34.0	34.0	74	26.6	2	6	270	0.00	29.944 
04:10	33.8	33.8	33.8	75	26.7	1	5	270	0.00	29.944 
04:15	33.8	33.8	33.8	75	26.7	2	9	248	0.00	29.952 
04:20	33.8	33.8	33.8	75	26.7	3	8	248	0.00	29.952 
04:25	33.7	33.7	33.7	75	26.6	2	6	248	0.00	29.952 
04:30	33.5	33.5	33.5	76	26.8	2	5	270	0.00	29.951 
04:35	33.5	33.5	33.5	76	26.8	2	4	270	0.00	29.951 
04:40	33.4	33.4	33.4	76	26.7	2	6	248	0.00	29.951 
04:45	33.4	33.4	33.4	77	27.0	2	4	248	0.00	29.955 
04:50	33.4	33.4	33.4	77	27.0	2	5	248	0.00	29.955 
04:55	33.2	33.2	33.2	77	26.8	1	6	248	0.00	29.955 
05:00	33.2	33.2	33.2	77	26.8	2	4	248	0.00	29.955 
05:05	33.2	33.2	33.2	77	26.8	1	4	248	0.00	29.955 
05:10	33.2	33.2	33.2	77	26.8	2	4	248	0.00	29.955 
05:15	33.2	33.2	33.2	77	26.8	1	5	248	0.00	29.963 
05:20	33.2	33.2	33.2	76	26.5	2	5	270	0.00	29.963 
05:25	33.2	33.2	33.2	76	26.5	2	5	270	0.00	29.963 
05:30	33.2	33.2	33.2	75	26.2	2	5	248	0.00	29.967 
05:35	33.2	33.2	33.2	74	25.8	2	8	270	0.00	29.967 
05:40	33.2	33.2	33.2	74	25.8	2	4	248	0.00	29.967 
05:45	33.2	33.2	33.2	74	25.8	2	4	248	0.00	29.971 
05:50	33.2	33.2	33.2	73	25.5	2	4	270	0.00	29.971 
05:55	33.2	33.2	33.2	72	25.2	3	4	248	0.00	29.971 
06:00	33.2	33.2	33.2	71	24.8	2	4	248	0.00	29.977 
06:05	33.2	33.2	33.2	71	24.8	2	5	270	0.00	29.977 
06:10	33.2	33.2	33.2	71	24.8	2	3	248	0.00	29.977 
06:15	33.2	33.2	33.2	71	24.8	1	4	248	0.00	29.982 
06:20	33.2	33.2	33.2	71	24.8	1	5	248	0.00	29.982 
06:25	33.2	33.2	33.2	72	25.2	2	4	270	0.00	29.982 
06:30	33.2	33.2	33.2	72	25.2	2	4	270	0.00	29.985 
06:35	33.1	33.1	33.1	71	24.7	2	5	270	0.00	29.985 
06:40	33.1	33.1	33.1	70	24.4	1	5	270	0.00	29.985 
06:45	33.1	33.1	33.1	70	24.4	2	5	270	0.00	29.988 
06:50	33.1	33.1	33.1	69	24.1	2	5	248	0.00	29.988 
06:55	33.1	33.1	33.1	69	24.1	2	5	270	0.00	29.988 
07:00	33.2	33.2	33.2	69	24.2	2	7	270	0.00	29.993 
07:05	33.1	33.1	33.1	69	24.1	2	6	270	0.00	29.993 
07:10	33.1	33.1	33.1	69	24.1	2	4	270	0.00	29.993 
07:15	33.1	33.1	33.1	70	24.4	1	4	270	0.00	30.000 
07:20	33.1	33.1	33.1	70	24.4	2	4	270	0.00	30.000 
07:25	33.1	33.1	33.1	68	23.7	3	7	270	0.00	30.000 
07:30	33.1	33.1	33.1	68	23.7	3	5	270	0.00	30.000 
07:35	33.1	33.1	33.1	68	23.7	2	5	248	0.00	30.000 
07:40	33.1	33.1	33.1	67	23.4	3	7	270	0.00	30.000 
07:45	33.1	33.1	33.1	67	23.4	2	4	248	0.00	30.005 
07:50	33.1	33.1	33.1	68	23.7	1	4	248	0.00	30.005 
07:55	33.1	33.1	33.1	68	23.7	2	6	248	0.00	30.005 
08:00	33.1	33.1	33.1	67	23.4	2	5	270	0.00	30.013 
08:05	33.1	33.1	33.1	66	23.0	2	6	270	0.00	30.013 
08:10	32.9	32.9	32.9	66	22.8	2	4	270	0.00	30.013 
08:15	32.9	32.9	32.9	66	22.8	2	3	270	0.00	30.015 
08:20	33.1	33.1	33.1	66	23.0	2	5	270	0.00	30.015 
08:25	33.1	33.1	33.1	66	23.0	1	4	270	0.00	30.015 
08:30	33.1	33.1	33.1	66	23.0	2	5	248	0.00	30.020 
08:35	33.1	33.1	33.1	66	23.0	2	5	270	0.00	30.020 
08:40	33.1	33.1	33.1	66	23.0	2	7	270	0.00	30.020 
08:45	33.1	33.1	33.1	65	22.6	2	5	270	0.00	30.029 
08:50	33.1	33.1	33.1	65	22.6	3	6	270	0.00	30.029 
08:55	33.1	33.1	33.1	65	22.6	3	5	270	0.00	30.029 
09:00	33.2	33.2	33.2	65	22.7	2	3	270	0.00	30.031 
09:05	33.5	33.5	33.5	66	23.4	2	4	270	0.00	30.031 
09:10	33.7	33.7	33.7	65	23.2	2	4	270	0.00	30.031 
09:15	33.7	33.7	33.7	65	23.2	2	4	270	0.00	30.030 
09:20	33.8	33.8	33.8	65	23.3	2	4	270	0.00	30.030 
09:25	34.0	34.0	34.0	65	23.5	2	4	270	0.00	30.030 
09:30	34.1	34.1	34.1	65	23.6	2	6	270	0.00	30.035 
09:35	34.3	34.3	34.3	65	23.8	3	5	270	0.00	30.035 
09:40	34.4	34.4	34.4	65	23.9	2	6	270	0.00	30.035 
09:45	34.6	34.6	34.6	64	23.7	3	9	270	0.00	30.042 
09:50	34.6	34.6	34.6	64	23.7	2	6	270	0.00	30.042 
09:55	34.7	34.7	34.7	63	23.4	3	5	270	0.00	30.042 
10:00	34.9	34.9	34.9	63	23.6	3	7	270	0.00	30.047 
10:05	35.3	35.3	35.3	62	23.6	2	5	270	0.00	30.047 
10:10	35.5	35.5	35.5	63	24.2	2	6	270	0.00	30.047 
10:15	35.6	35.6	35.6	63	24.3	2	4	248	0.00	30.047 
10:20	35.8	35.8	35.8	64	24.8	2	5	270	0.00	30.047 
10:25	35.9	35.9	35.9	64	24.9	2	7	270	0.00	30.047 
10:30	36.0	36.0	36.0	63	24.6	3	6	248	0.00	30.048 
10:35	36.3	36.3	36.3	63	24.9	2	5	248	0.00	30.048 
10:40	36.5	36.5	36.5	62	24.7	2	5	248	0.00	30.048 
10:45	36.6	36.6	36.6	62	24.8	3	6	270	0.00	30.057 
10:50	36.9	36.9	36.9	62	25.1	2	6	270	0.00	30.057 
10:55	36.9	36.9	36.9	60	24.3	3	6	270	0.00	30.057 
11:00	36.9	36.9	36.9	60	24.3	2	5	270	0.00	30.058 
11:05	37.0	37.0	37.0	62	25.2	2	11	270	0.00	30.058 
11:10	37.2	37.2	37.2	61	25.0	3	5	270	0.00	30.058 
11:15	37.5	37.5	37.5	61	25.3	2	5	270	0.00	30.049 
11:20	37.9	37.9	37.9	59	24.9	3	6	248	0.00	30.049 
11:25	38.2	38.2	38.2	57	24.3	3	6	270	0.00	30.049 
11:30	38.2	38.2	38.2	57	24.3	3	6	292	0.00	30.048 
11:35	38.2	38.2	38.2	58	24.7	3	7	270	0.00	30.048 
11:40	38.0	34.1	38.0	57	24.1	5	11	270	0.00	30.048 
11:45	38.2	35.2	38.2	58	24.7	4	9	270	0.00	30.048 
11:50	38.0	38.0	38.0	58	24.6	3	8	292	0.00	30.048 
11:55	38.0	38.0	38.0	59	25.0	3	8	270	0.00	30.048 
12:00	38.0	38.0	38.0	58	24.6	3	7	270	0.00	30.045 
12:05	38.6	38.6	38.6	60	25.9	2	4	248	0.00	30.045 
12:10	38.9	38.9	38.9	59	25.8	3	5	270	0.00	30.045 
12:15	39.2	39.2	39.2	59	26.1	3	6	248	0.00	30.043 
12:20	39.3	39.3	39.3	58	25.8	3	9	248	0.00	30.043 
12:25	38.9	38.9	38.9	58	25.4	3	6	270	0.00	30.043 
12:30	38.5	38.5	38.5	60	25.8	3	5	270	0.00	30.045 
12:35	39.1	39.1	39.1	61	26.8	2	4	292	0.00	30.045 
12:40	39.3	39.3	39.3	58	25.8	3	5	248	0.00	30.045 
12:45	39.3	39.3	39.3	58	25.8	3	7	292	0.00	30.037 
12:50	39.1	39.1	39.1	58	25.6	3	7	270	0.00	30.037 
12:55	38.5	35.6	38.5	59	25.4	4	7	270	0.00	30.037 
13:00	38.9	38.9	38.9	60	26.2	3	6	292	0.00	30.041 
13:05	40.1	40.1	40.1	63	28.5	2	5	270	0.00	30.041 
13:10	40.6	40.6	40.6	59	27.4	2	6	248	0.00	30.041 
13:15	40.2	40.2	40.2	60	27.4	2	5	248	0.00	30.040 
13:20	39.6	39.6	39.6	61	27.3	3	6	270	0.00	30.040 
13:25	39.6	39.6	39.6	62	27.7	2	4	248	0.00	30.040 
13:30	40.2	40.2	40.2	65	29.4	2	3	248	0.00	30.039 
13:35	40.3	40.3	40.3	63	28.7	2	6	248	0.00	30.039 
13:40	40.2	40.2	40.2	64	29.0	2	5	248	0.00	30.039 
13:45	40.2	40.2	40.2	63	28.6	3	6	270	0.00	30.036 
13:50	39.8	39.8	39.8	64	28.6	1	4	248	0.00	30.036 
13:55	39.5	39.5	39.5	63	28.0	2	6	248	0.00	30.036 
14:00	39.3	39.3	39.3	63	27.8	2	4	248	0.00	30.036 
14:05	39.5	39.5	39.5	64	28.3	2	6	248	0.00	30.036 
14:10	39.6	39.6	39.6	63	28.1	2	5	248	0.00	30.036 
14:15	39.8	39.8	39.8	63	28.2	3	7	248	0.00	30.032 
14:20	39.6	39.6	39.6	62	27.7	2	6	248	0.00	30.032 
14:25	39.5	39.5	39.5	62	27.6	2	7	292	0.00	30.032 
14:30	39.6	39.6	39.6	63	28.1	1	3	270	0.00	30.030 
14:35	39.8	39.8	39.8	63	28.2	2	5	270	0.00	30.030 
14:40	39.8	39.8	39.8	62	27.9	1	4	270	0.00	30.030 
14:45	39.9	39.9	39.9	61	27.6	2	5	248	0.00	30.026 
14:50	39.8	39.8	39.8	62	27.9	2	5	270	0.00	30.026 
14:55	39.8	39.8	39.8	61	27.5	1	4	270	0.00	30.026 
15:00	40.1	40.1	40.1	61	27.7	2	5	225	0.00	30.024 
15:05	40.1	40.1	40.1	61	27.7	2	7	292	0.00	30.024 
15:10	40.1	40.1	40.1	60	27.3	3	6	248	0.00	30.024 
15:15	40.2	40.2	40.2	60	27.4	2	5	248	0.00	30.022 
15:20	40.5	40.5	40.5	60	27.7	2	6	270	0.00	30.022 
15:25	40.6	40.6	40.6	59	27.4	3	5	270	0.00	30.022 
15:30	40.6	40.6	40.6	58	27.0	3	5	270	0.00	30.021 
15:35	40.5	40.5	40.5	59	27.3	2	4	270	0.00	30.021 
15:40	40.5	40.5	40.5	60	27.7	2	6	270	0.00	30.021 
15:45	40.6	40.6	40.6	61	28.2	2	5	270	0.00	30.023 
15:50	40.6	40.6	40.6	60	27.8	3	5	248	0.00	30.023 
15:55	40.6	40.6	40.6	60	27.8	3	6	270	0.00	30.023 
16:00	40.9	40.9	40.9	61	28.5	2	5	248	0.00	30.019 
16:05	41.1	41.1	41.1	61	28.7	2	6	270	0.00	30.019 
16:10	41.5	41.5	41.5	62	29.5	2	5	248	0.00	30.019 
16:15	41.5	41.5	41.5	60	28.7	3	7	270	0.00	30.018 
16:20	41.3	41.3	41.3	60	28.5	3	9	270	0.00	30.018 
16:25	41.3	41.3	41.3	61	28.9	3	5	292	0.00	30.018 
16:30	41.1	41.1	41.1	61	28.7	3	7	270	0.00	30.018 
16:35	41.1	41.1	41.1	62	29.1	2	6	315	0.00	30.018 
16:40	41.2	41.2	41.2	62	29.2	2	6	248	0.00	30.018 
16:45	41.2	41.2	41.2	62	29.2	3	7	270	0.00	30.017 
16:50	41.2	41.2	41.2	62	29.2	2	5	270	0.00	30.017 
16:55	41.5	41.5	41.5	62	29.5	2	4	270	0.00	30.017 
17:00	41.5	41.5	41.5	62	29.5	2	4	270	0.00	30.014 
17:05	41.6	41.6	41.6	62	29.6	1	3	248	0.00	30.014 
17:10	41.6	41.6	41.6	60	28.8	3	6	270	0.00	30.014 
17:15	41.6	41.6	41.6	62	29.6	2	4	270	0.00	30.012 
17:20	42.2	42.2	42.2	61	29.7	3	5	270	0.00	30.012 
17:25	42.5	42.5	42.5	60	29.6	2	4	270	0.00	30.012 
17:30	42.2	42.2	42.2	60	29.3	1	5	292	0.00	30.010 
17:35	42.1	42.1	42.1	60	29.2	1	3	248	0.00	30.010 
17:40	42.2	42.2	42.2	60	29.3	2	4	270	0.00	30.010 
17:45	42.1	42.1	42.1	59	28.8	1	4	248	0.00	30.012 
17:50	41.9	41.9	41.9	60	29.0	1	4	248	0.00	30.012 
17:55	41.9	41.9	41.9	61	29.4	1	3	248	0.00	30.012 
18:00	42.5	42.5	42.5	60	29.6	1	3	248	0.00	30.010 
18:05	42.5	42.5	42.5	57	28.4	2	4	248	0.00	30.010 
18:10	42.2	42.2	42.2	58	28.5	2	6	248	0.00	30.010 
18:15	42.3	42.3	42.3	58	28.6	1	2	248	0.00	30.013 
18:20	42.3	42.3	42.3	59	29.0	1	5	248	0.00	30.013 
18:25	42.2	42.2	42.2	57	28.1	2	4	248	0.00	30.013 
18:30	41.9	41.9	41.9	57	27.8	2	6	270	0.00	30.014 
18:35	41.8	41.8	41.8	58	28.1	1	3	292	0.00	30.014 
18:40	41.8	41.8	41.8	58	28.1	0	2	292	0.00	30.014 
18:45	41.6	41.6	41.6	58	27.9	1	3	270	0.00	30.013 
18:50	41.6	41.6	41.6	58	27.9	1	4	292	0.00	30.013 
18:55	41.5	41.5	41.5	58	27.8	0	2	292	0.00	30.013 
19:00	41.3	41.3	41.3	59	28.1	0	3	292	0.00	30.015 
19:05	41.2	41.2	41.2	59	28.0	0	1	292	0.00	30.015 
19:10	41.1	41.1	41.1	60	28.3	0	1	292	0.00	30.015 
19:15	40.9	40.9	40.9	59	27.7	1	3	292	0.00	30.021 
19:20	40.8	40.8	40.8	59	27.6	1	2	292	0.00	30.021 
19:25	40.6	40.6	40.6	59	27.4	0	2	292	0.00	30.021 
19:30	40.5	40.5	40.5	59	27.3	0	2	292	0.00	30.021 
19:35	40.3	40.3	40.3	59	27.1	0	1	292	0.00	30.021 
19:40	40.1	40.1	40.1	59	26.9	0	0	---	0.00	30.021 
19:45	39.9	39.9	39.9	60	27.2	0	1	292	0.00	30.020 
19:50	39.6	39.6	39.6	60	26.9	0	1	292	0.00	30.020 
19:55	39.3	39.3	39.3	61	27.0	0	1	292	0.00	30.020 
20:00	39.1	39.1	39.1	61	26.8	0	1	292	0.00	30.024 
20:05	38.9	38.9	38.9	62	27.0	0	0	---	0.00	30.024 
20:10	38.6	38.6	38.6	62	26.7	0	0	---	0.00	30.024 
20:15	38.3	38.3	38.3	63	26.8	0	0	---	0.00	30.030 
20:20	38.0	38.0	38.0	63	26.5	0	1	292	0.00	30.030 
20:25	37.9	37.9	37.9	64	26.8	0	1	292	0.00	30.030 
20:30	37.9	37.9	37.9	64	26.8	0	1	292	0.00	30.033 
20:35	37.9	37.9	37.9	64	26.8	0	0	---	0.00	30.033 
20:40	37.8	37.8	37.8	64	26.7	0	1	292	0.00	30.033 
20:45	37.6	37.6	37.6	64	26.5	0	0	---	0.00	30.035 
20:50	37.5	37.5	37.5	64	26.4	0	1	292	0.00	30.035 
20:55	37.5	37.5	37.5	65	26.8	0	1	292	0.00	30.035 
21:00	37.3	37.3	37.3	64	26.3	0	0	---	0.00	30.039 
21:05	37.2	37.2	37.2	65	26.5	0	0	---	0.00	30.039 
21:10	36.8	36.8	36.8	65	26.2	0	0	---	0.00	30.039 
21:15	36.3	36.3	36.3	66	26.0	0	0	---	0.00	30.042 
21:20	36.0	36.0	36.0	67	26.1	0	0	---	0.00	30.042 
21:25	35.8	35.8	35.8	67	25.9	0	1	292	0.00	30.042 
21:30	35.8	35.8	35.8	68	26.3	0	1	292	0.00	30.045 
21:35	35.8	35.8	35.8	68	26.3	0	1	292	0.00	30.045 
21:40	35.9	35.9	35.9	67	26.0	0	1	292	0.00	30.045 
21:45	35.9	35.9	35.9	67	26.0	0	0	---	0.00	30.045 
21:50	35.8	35.8	35.8	67	25.9	0	0	---	0.00	30.045 
21:55	35.5	35.5	35.5	68	26.0	0	0	---	0.00	30.045 
22:00	35.2	35.2	35.2	68	25.7	0	1	292	0.00	30.039 
22:05	34.9	34.9	34.9	68	25.4	0	0	---	0.00	30.039 
22:10	34.4	34.4	34.4	69	25.3	0	0	---	0.00	30.039 
22:15	34.1	34.1	34.1	69	25.0	0	0	---	0.00	30.045 
22:20	34.0	34.0	34.0	70	25.3	0	0	---	0.00	30.045 
22:25	34.0	34.0	34.0	70	25.3	0	0	---	0.00	30.045 
22:30	33.8	33.8	33.8	71	25.4	0	0	---	0.00	30.049 
22:35	33.5	33.5	33.5	71	25.1	0	0	---	0.00	30.049 
22:40	33.2	33.2	33.2	71	24.8	0	0	---	0.00	30.049 
22:45	32.8	32.8	32.8	71	24.4	0	0	---	0.00	30.050 
22:50	32.4	32.4	32.4	72	24.4	0	0	---	0.00	30.050 
22:55	32.1	32.1	32.1	72	24.1	0	0	---	0.00	30.050 
23:00	31.8	31.8	31.8	73	24.1	0	0	---	0.00	30.052 
23:05	31.5	31.5	31.5	74	24.2	0	0	---	0.00	30.052 
23:10	31.3	31.3	31.3	75	24.3	0	0	---	0.00	30.052 
23:15	31.2	31.2	31.2	76	24.5	0	0	---	0.00	30.053 
23:20	31.2	31.2	31.2	76	24.5	0	0	---	0.00	30.053 
23:25	31.2	31.2	31.2	77	24.8	0	0	---	0.00	30.053 
23:30	31.0	31.0	31.0	77	24.7	0	0	---	0.00	30.056 
23:35	31.2	31.2	31.2	77	24.8	0	0	---	0.00	30.056 
23:40	31.2	31.2	31.2	78	25.2	0	0	---	0.00	30.056 
23:45	31.2	31.2	31.2	78	25.2	0	0	---	0.00	30.062 
23:50	31.2	31.2	31.2	78	25.2	0	0	---	0.00	30.062 
23:55	31.2	31.2	31.2	78	25.2	0	0	---	0.00	30.062 

CoCoRaHS
IN-AL-39
A2 Web Hosting
Creative Commons License
GoDaddy
search engine by freefind advanced

loaded 2018-11-16 10:42:34 • last modified 2010-11-18 10:43:29
Privacy PolicyDisclaimer
• wx.awcolley.com is powered by PmWiki v.2002016 •
• all content (unless otherwise noted) © 2018 A W Colley